Darstellungsparameter: Aktuell verwendete Einstellungen:
Skalierung der Graphiken ... ?
xyx+y,   Skalierungsfaktor:      Skalierung: Modus: x, Faktor: 1
Darstellungszeitraum ... ?
Vom - - bis: - -   Zeitraum: 15.08.2009 - 15.08.2009
Min/Max/Avg-Anzeige ... ?
Zeige MMA aktuell
Zeige MMA Monat
Zeige MMA alles
Zeige --A aktuell
Zeige --A Monat
Zeige --A alles
Keine MMA-Anzeige
MMA:
Keine MMA-Graphiken
MMA-Basis: 15.08.2009 - 15.08.2009
Quicknavigation für Darstellung... ?
Tage:      1T, 2T, 3T, 5T -1T -2T -3T -5T +1T +2T +3T +5T
Wochen: 1W, 2W, 3W -1W -2W -3W +1W +2W +3W
Monate: 1M, 3M, 6M -1M -3M -6M +1M +3M +6M
Jahre:    1J, 3J, 5J, 10J -1J -3J -5J -10J +1J +3J +5J +10J
Nutze für die Darstellung ... ?
Originaldaten oder Mittelwerte auf ...
Stundenbasis Tagesbasis Wochenbasis
Monatsbasis Jahresbasis      Datenbasis: Original-Daten
Darstellen als:
Statistik (Auto) Statistik J:M      Darstellung:
Zur Graphik,    zurück zur Übersicht aller Sensoren.
 
Tabellarische Datenbersicht: ?
 
Sensor: Nr:Datum:Temp:Feuchte:Taupunkt:
Aussen-T/F 1 15-08-2009 00:05:39 16.9 C 69 % 11.18 C
2 15-08-2009 00:17:39 16.7 C 69 % 10.99 C
3 15-08-2009 00:29:39 16.6 C 70 % 11.11 C
4 15-08-2009 00:41:39 16.5 C 71 % 11.23 C
5 15-08-2009 00:53:39 16.3 C 73 % 11.46 C
6 15-08-2009 01:05:39 16.1 C 74 % 11.47 C
7 15-08-2009 01:17:39 15.9 C 76 % 11.68 C
8 15-08-2009 01:29:39 15.8 C 77 % 11.78 C
9 15-08-2009 01:41:39 15.8 C 77 % 11.78 C
10 15-08-2009 01:53:39 15.4 C 78 % 11.59 C
11 15-08-2009 02:05:39 15.2 C 79 % 11.59 C
12 15-08-2009 02:17:39 15.2 C 80 % 11.78 C
13 15-08-2009 02:29:39 15.1 C 80 % 11.68 C
14 15-08-2009 02:41:39 15 C 81 % 11.77 C
15 15-08-2009 02:53:40 14.9 C 82 % 11.86 C
16 15-08-2009 03:05:40 14.9 C 82 % 11.86 C
17 15-08-2009 03:17:40 14.8 C 83 % 11.94 C
18 15-08-2009 03:29:40 14.4 C 83 % 11.55 C
19 15-08-2009 03:41:40 14.3 C 83 % 11.45 C
20 15-08-2009 03:53:40 14.2 C 83 % 11.36 C
21 15-08-2009 04:05:40 14.2 C 83 % 11.36 C
22 15-08-2009 04:17:40 14.1 C 83 % 11.26 C
23 15-08-2009 04:29:40 13.9 C 85 % 11.42 C
24 15-08-2009 04:41:40 13.8 C 86 % 11.5 C
25 15-08-2009 04:53:40 13.7 C 87 % 11.58 C
Sensor: Nr:Datum:Temp:Feuchte:Taupunkt:
Aussen-T/F 26 15-08-2009 05:05:40 13.8 C 88 % 11.85 C
27 15-08-2009 05:17:40 13.7 C 88 % 11.75 C
28 15-08-2009 05:29:40 13.5 C 88 % 11.55 C
29 15-08-2009 05:41:40 13.8 C 88 % 11.85 C
30 15-08-2009 05:53:40 13.9 C 87 % 11.77 C
31 15-08-2009 06:05:40 14 C 87 % 11.87 C
32 15-08-2009 06:17:40 14 C 86 % 11.7 C
33 15-08-2009 06:29:40 14 C 85 % 11.52 C
34 15-08-2009 06:41:41 13.8 C 86 % 11.5 C
35 15-08-2009 06:53:41 13.9 C 85 % 11.42 C
36 15-08-2009 07:05:41 13.9 C 85 % 11.42 C
37 15-08-2009 07:17:41 13.7 C 85 % 11.23 C
38 15-08-2009 07:29:41 13.6 C 85 % 11.13 C
39 15-08-2009 07:41:41 13.8 C 86 % 11.5 C
40 15-08-2009 07:53:41 13.8 C 85 % 11.32 C
41 15-08-2009 08:05:41 14.1 C 84 % 11.44 C
42 15-08-2009 08:17:41 14.1 C 83 % 11.26 C
43 15-08-2009 08:29:41 14.4 C 84 % 11.73 C
44 15-08-2009 08:41:38 14.2 C 82 % 11.17 C
45 15-08-2009 08:53:38 14.6 C 83 % 11.75 C
46 15-08-2009 09:05:38 15 C 79 % 11.39 C
47 15-08-2009 09:17:37 14.8 C 80 % 11.39 C
48 15-08-2009 09:29:37 15 C 79 % 11.39 C
49 15-08-2009 09:41:37 15.3 C 80 % 11.87 C
50 15-08-2009 09:53:37 15.9 C 78 % 12.07 C
Sensor: Nr:Datum:Temp:Feuchte:Taupunkt:
Aussen-T/F 51 15-08-2009 10:05:37 16.2 C 75 % 11.77 C
52 15-08-2009 10:17:37 17.1 C 74 % 12.43 C
53 15-08-2009 10:29:37 17.9 C 73 % 12.99 C
54 15-08-2009 10:41:36 18.5 C 72 % 13.36 C
55 15-08-2009 10:53:37 19.2 C 68 % 13.15 C
56 15-08-2009 11:05:36 19.8 C 65 % 13.03 C
57 15-08-2009 11:17:36 20.8 C 62 % 13.26 C
58 15-08-2009 11:29:36 21.4 C 59 % 13.06 C
59 15-08-2009 11:41:37 22.1 C 56 % 12.92 C
60 15-08-2009 11:53:36 22.9 C 53 % 12.82 C
61 15-08-2009 12:05:36 23.3 C 48 % 11.68 C
62 15-08-2009 12:17:36 23.9 C 43 % 10.57 C
63 15-08-2009 12:29:36 24 C 40 % 9.58 C
64 15-08-2009 12:41:36 24.5 C 40 % 10.02 C
65 15-08-2009 12:53:35 24.9 C 36 % 8.81 C
66 15-08-2009 13:05:35 25.3 C 35 % 8.75 C
67 15-08-2009 13:17:35 25.6 C 32 % 7.69 C
68 15-08-2009 13:29:35 26.6 C 31 % 8.09 C
69 15-08-2009 13:41:35 27.2 C 30 % 8.13 C
70 15-08-2009 13:53:34 27.2 C 30 % 8.13 C
71 15-08-2009 14:05:35 27.4 C 30 % 8.3 C
72 15-08-2009 14:17:35 27.7 C 31 % 9.04 C
73 15-08-2009 14:29:35 27.9 C 30 % 8.73 C
74 15-08-2009 14:41:34 28.3 C 30 % 9.07 C
75 15-08-2009 14:53:34 28.8 C 29 % 9 C
Sensor: Nr:Datum:Temp:Feuchte:Taupunkt:
Aussen-T/F 76 15-08-2009 15:05:35 29.4 C 29 % 9.52 C
77 15-08-2009 15:17:34 29.8 C 27 % 8.8 C
78 15-08-2009 15:29:34 30 C 25 % 7.83 C
79 15-08-2009 15:41:34 30.2 C 26 % 8.58 C
80 15-08-2009 15:53:34 30.4 C 26 % 8.75 C
81 15-08-2009 16:05:34 30.8 C 23 % 7.28 C
82 15-08-2009 16:17:33 30.6 C 23 % 7.12 C
83 15-08-2009 16:29:33 30.8 C 23 % 7.28 C
84 15-08-2009 16:41:33 31.4 C 23 % 7.78 C
85 15-08-2009 16:53:33 31.8 C 20 % 6.08 C
86 15-08-2009 17:05:33 31.4 C 20 % 5.75 C
87 15-08-2009 17:17:33 32 C 20 % 6.24 C
88 15-08-2009 17:29:33 31.9 C 20 % 6.16 C
89 15-08-2009 17:41:33 31.7 C 20 % 6 C
90 15-08-2009 17:53:33 31.7 C 20 % 6 C
91 15-08-2009 18:05:32 31.5 C 20 % 5.83 C
92 15-08-2009 18:17:32 31.7 C 20 % 6 C
93 15-08-2009 18:29:33 31.3 C 20 % 5.67 C
94 15-08-2009 18:41:32 31.4 C 20 % 5.75 C
95 15-08-2009 18:53:32 31.2 C 20 % 5.59 C
96 15-08-2009 19:05:32 31.2 C 20 % 5.59 C
97 15-08-2009 19:17:32 31.2 C 20 % 5.59 C
98 15-08-2009 19:29:32 31.2 C 23 % 7.62 C
99 15-08-2009 19:41:32 30.9 C 25 % 8.59 C
100 15-08-2009 19:53:31 30.2 C 25 % 8 C
Sensor: Nr:Datum:Temp:Feuchte:Taupunkt:
Aussen-T/F 101 15-08-2009 20:05:32 29.4 C 27 % 8.46 C
102 15-08-2009 20:17:31 28.3 C 30 % 9.07 C
103 15-08-2009 20:29:31 26.9 C 33 % 9.28 C
104 15-08-2009 20:41:31 25.9 C 37 % 10.1 C
105 15-08-2009 20:53:31 25.2 C 39 % 10.27 C
106 15-08-2009 21:05:31 24.5 C 40 % 10.02 C
107 15-08-2009 21:17:31 24 C 43 % 10.66 C
108 15-08-2009 21:29:31 23.7 C 46 % 11.4 C
109 15-08-2009 21:41:30 23.2 C 48 % 11.59 C
110 15-08-2009 21:53:30 22.8 C 48 % 11.22 C
111 15-08-2009 22:05:30 22.4 C 48 % 10.86 C
112 15-08-2009 22:17:30 22 C 50 % 11.11 C
113 15-08-2009 22:29:30 21.9 C 51 % 11.31 C
114 15-08-2009 22:42:31 21.8 C 51 % 11.22 C
115 15-08-2009 22:54:31 21.5 C 53 % 11.52 C
116 15-08-2009 23:06:31 21.3 C 53 % 11.34 C
117 15-08-2009 23:18:31 20.9 C 55 % 11.53 C
118 15-08-2009 23:30:31 20.6 C 56 % 11.52 C
119 15-08-2009 23:42:31 20.5 C 56 % 11.43 C
120 15-08-2009 23:54:31 20.2 C 57 % 11.42 C

Legende:
   Min
   Max


Maximal/Minimal-Werte vom 15.08.2009 - 15.08.2009

Sensor Min Max Avg
Temp
(Aussen-T/F)
13.5 °C
15-08-2009  05:29:40
32 °C
15-08-2009  17:17:33
21.38 °C
Feuchte
(Aussen-T/F)
20 %
15-08-2009  16:53:33
88 %
15-08-2009  05:05:40
56.09 %
Taupunkt
(Aussen-T/F)
5.59 C
15-08-2009  18:53:32
13.36 C
15-08-2009  10:41:36
10.17 C

Die Daten stammen von einer Davis Vantage Pro 2 Wetter-Station und werden unter Linux mit der Software wview2wettercgi und aufbereitet. Alle Angaben erfolgen ohne Gewähr für ihre Vollständigkeit oder Richtigkeit.
Kontakt: Rainer Krienke krienke@uni-koblenz.de . Meine Webseiten an der Uni Koblenz oder privat.
Version: $Revision: 0.78 $